sensor_id;sensor_type;location;lat;lon;timestamp;P1;durP1;ratioP1;P2;durP2;ratioP2
7813;SDS011;3952;48.364;16.022;2023-06-05T00:02:19;8.33;;;7.57;;
7813;SDS011;3952;48.364;16.022;2023-06-05T00:04:47;8.50;;;7.90;;
7813;SDS011;3952;48.364;16.022;2023-06-05T00:07:14;7.70;;;7.20;;
7813;SDS011;3952;48.364;16.022;2023-06-05T00:09:42;7.30;;;6.70;;
7813;SDS011;3952;48.364;16.022;2023-06-05T00:12:09;8.67;;;7.90;;
7813;SDS011;3952;48.364;16.022;2023-06-05T00:14:36;8.53;;;7.70;;
7813;SDS011;3952;48.364;16.022;2023-06-05T00:17:04;8.27;;;7.63;;
7813;SDS011;3952;48.364;16.022;2023-06-05T00:19:35;8.83;;;8.13;;
7813;SDS011;3952;48.364;16.022;2023-06-05T00:22:03;8.13;;;7.60;;
7813;SDS011;3952;48.364;16.022;2023-06-05T00:24:30;8.40;;;7.80;;
7813;SDS011;3952;48.364;16.022;2023-06-05T00:26:58;7.90;;;7.30;;
7813;SDS011;3952;48.364;16.022;2023-06-05T00:29:25;8.37;;;7.77;;
7813;SDS011;3952;48.364;16.022;2023-06-05T00:31:52;10.77;;;8.37;;
7813;SDS011;3952;48.364;16.022;2023-06-05T00:34:19;8.60;;;8.00;;
7813;SDS011;3952;48.364;16.022;2023-06-05T00:36:48;8.57;;;7.93;;
7813;SDS011;3952;48.364;16.022;2023-06-05T00:39:16;8.87;;;8.17;;
7813;SDS011;3952;48.364;16.022;2023-06-05T00:41:44;9.10;;;8.50;;
7813;SDS011;3952;48.364;16.022;2023-06-05T00:44:11;9.40;;;8.90;;
7813;SDS011;3952;48.364;16.022;2023-06-05T00:46:39;10.13;;;9.33;;
7813;SDS011;3952;48.364;16.022;2023-06-05T00:49:06;10.13;;;9.43;;
7813;SDS011;3952;48.364;16.022;2023-06-05T00:51:34;10.13;;;9.23;;
7813;SDS011;3952;48.364;16.022;2023-06-05T00:54:04;10.40;;;9.47;;
7813;SDS011;3952;48.364;16.022;2023-06-05T00:56:32;10.40;;;9.60;;
7813;SDS011;3952;48.364;16.022;2023-06-05T00:59:02;10.77;;;9.87;;
7813;SDS011;3952;48.364;16.022;2023-06-05T01:01:30;9.83;;;9.13;;
7813;SDS011;3952;48.364;16.022;2023-06-05T01:03:59;9.67;;;9.07;;
7813;SDS011;3952;48.364;16.022;2023-06-05T01:06:27;10.03;;;9.17;;
7813;SDS011;3952;48.364;16.022;2023-06-05T01:08:56;9.83;;;9.20;;
7813;SDS011;3952;48.364;16.022;2023-06-05T01:11:28;10.00;;;9.40;;
7813;SDS011;3952;48.364;16.022;2023-06-05T01:14:06;9.67;;;9.07;;
7813;SDS011;3952;48.364;16.022;2023-06-05T01:16:41;9.93;;;9.10;;
7813;SDS011;3952;48.364;16.022;2023-06-05T01:19:10;8.63;;;8.03;;
7813;SDS011;3952;48.364;16.022;2023-06-05T01:21:41;8.83;;;8.27;;
7813;SDS011;3952;48.364;16.022;2023-06-05T01:24:11;9.10;;;8.60;;
7813;SDS011;3952;48.364;16.022;2023-06-05T01:26:43;8.63;;;7.93;;
7813;SDS011;3952;48.364;16.022;2023-06-05T01:29:21;8.43;;;7.83;;
7813;SDS011;3952;48.364;16.022;2023-06-05T01:31:55;8.80;;;8.17;;
7813;SDS011;3952;48.364;16.022;2023-06-05T01:34:31;9.10;;;8.50;;
7813;SDS011;3952;48.364;16.022;2023-06-05T01:37:01;8.80;;;8.03;;
7813;SDS011;3952;48.364;16.022;2023-06-05T01:39:35;9.10;;;8.50;;
7813;SDS011;3952;48.364;16.022;2023-06-05T01:42:04;8.73;;;8.23;;
7813;SDS011;3952;48.364;16.022;2023-06-05T01:44:32;9.77;;;9.17;;
7813;SDS011;3952;48.364;16.022;2023-06-05T01:47:00;10.30;;;9.60;;
7813;SDS011;3952;48.364;16.022;2023-06-05T01:49:28;10.00;;;9.30;;
7813;SDS011;3952;48.364;16.022;2023-06-05T01:51:55;11.50;;;10.53;;
7813;SDS011;3952;48.364;16.022;2023-06-05T01:54:22;10.60;;;9.70;;
7813;SDS011;3952;48.364;16.022;2023-06-05T01:56:53;10.67;;;9.87;;
7813;SDS011;3952;48.364;16.022;2023-06-05T01:59:20;11.43;;;10.50;;
7813;SDS011;3952;48.364;16.022;2023-06-05T02:01:48;13.73;;;10.50;;
7813;SDS011;3952;48.364;16.022;2023-06-05T02:04:15;10.40;;;9.53;;
7813;SDS011;3952;48.364;16.022;2023-06-05T02:06:44;10.70;;;9.90;;
7813;SDS011;3952;48.364;16.022;2023-06-05T02:09:12;11.00;;;10.30;;
7813;SDS011;3952;48.364;16.022;2023-06-05T02:11:39;11.03;;;10.23;;
7813;SDS011;3952;48.364;16.022;2023-06-05T02:14:11;10.57;;;9.87;;
7813;SDS011;3952;48.364;16.022;2023-06-05T02:16:40;10.83;;;9.97;;
7813;SDS011;3952;48.364;16.022;2023-06-05T02:19:08;10.20;;;9.50;;
7813;SDS011;3952;48.364;16.022;2023-06-05T02:21:36;10.73;;;9.93;;
7813;SDS011;3952;48.364;16.022;2023-06-05T02:24:03;11.13;;;10.23;;
7813;SDS011;3952;48.364;16.022;2023-06-05T02:26:32;10.57;;;9.87;;
7813;SDS011;3952;48.364;16.022;2023-06-05T02:28:59;11.03;;;10.13;;
7813;SDS011;3952;48.364;16.022;2023-06-05T02:31:29;9.83;;;9.07;;
7813;SDS011;3952;48.364;16.022;2023-06-05T02:33:56;11.73;;;10.77;;
7813;SDS011;3952;48.364;16.022;2023-06-05T02:36:23;10.97;;;10.27;;
7813;SDS011;3952;48.364;16.022;2023-06-05T02:38:51;9.17;;;8.67;;
7813;SDS011;3952;48.364;16.022;2023-06-05T02:41:19;10.67;;;9.97;;
7813;SDS011;3952;48.364;16.022;2023-06-05T02:43:47;10.23;;;9.47;;
7813;SDS011;3952;48.364;16.022;2023-06-05T02:46:14;10.37;;;9.53;;
7813;SDS011;3952;48.364;16.022;2023-06-05T02:48:43;10.90;;;10.10;;
7813;SDS011;3952;48.364;16.022;2023-06-05T02:51:10;11.70;;;10.77;;
7813;SDS011;3952;48.364;16.022;2023-06-05T02:53:38;10.73;;;9.93;;
7813;SDS011;3952;48.364;16.022;2023-06-05T02:56:06;11.17;;;10.27;;
7813;SDS011;3952;48.364;16.022;2023-06-05T02:58:33;10.63;;;9.73;;
7813;SDS011;3952;48.364;16.022;2023-06-05T03:01:00;10.57;;;9.83;;
7813;SDS011;3952;48.364;16.022;2023-06-05T03:03:28;11.13;;;10.30;;
7813;SDS011;3952;48.364;16.022;2023-06-05T03:05:59;11.23;;;10.27;;
7813;SDS011;3952;48.364;16.022;2023-06-05T03:08:29;11.63;;;10.60;;
7813;SDS011;3952;48.364;16.022;2023-06-05T03:11:00;11.50;;;10.60;;
7813;SDS011;3952;48.364;16.022;2023-06-05T03:13:28;12.03;;;11.10;;
7813;SDS011;3952;48.364;16.022;2023-06-05T03:15:57;12.50;;;11.40;;
7813;SDS011;3952;48.364;16.022;2023-06-05T03:18:26;12.50;;;11.30;;
7813;SDS011;3952;48.364;16.022;2023-06-05T03:20:54;13.10;;;12.00;;
7813;SDS011;3952;48.364;16.022;2023-06-05T03:23:23;12.43;;;11.60;;
7813;SDS011;3952;48.364;16.022;2023-06-05T03:25:52;12.17;;;11.07;;
7813;SDS011;3952;48.364;16.022;2023-06-05T03:28:20;12.67;;;11.43;;
7813;SDS011;3952;48.364;16.022;2023-06-05T03:30:49;13.23;;;12.03;;
7813;SDS011;3952;48.364;16.022;2023-06-05T03:33:16;13.47;;;12.40;;
7813;SDS011;3952;48.364;16.022;2023-06-05T03:35:43;12.73;;;11.73;;
7813;SDS011;3952;48.364;16.022;2023-06-05T03:38:12;12.43;;;11.63;;
7813;SDS011;3952;48.364;16.022;2023-06-05T03:40:41;13.20;;;12.10;;
7813;SDS011;3952;48.364;16.022;2023-06-05T03:43:08;12.90;;;11.97;;
7813;SDS011;3952;48.364;16.022;2023-06-05T03:45:36;12.30;;;11.27;;
7813;SDS011;3952;48.364;16.022;2023-06-05T03:48:05;12.63;;;11.73;;
7813;SDS011;3952;48.364;16.022;2023-06-05T03:50:34;12.57;;;11.63;;
7813;SDS011;3952;48.364;16.022;2023-06-05T03:53:03;11.70;;;10.80;;
7813;SDS011;3952;48.364;16.022;2023-06-05T03:55:30;12.77;;;11.50;;
7813;SDS011;3952;48.364;16.022;2023-06-05T03:58:04;11.97;;;10.87;;
7813;SDS011;3952;48.364;16.022;2023-06-05T04:00:33;12.27;;;11.37;;
7813;SDS011;3952;48.364;16.022;2023-06-05T04:03:00;11.63;;;10.93;;
7813;SDS011;3952;48.364;16.022;2023-06-05T04:05:28;11.50;;;10.67;;
7813;SDS011;3952;48.364;16.022;2023-06-05T04:07:55;10.87;;;9.97;;
7813;SDS011;3952;48.364;16.022;2023-06-05T04:10:22;12.87;;;11.53;;
7813;SDS011;3952;48.364;16.022;2023-06-05T04:12:50;11.80;;;10.93;;
7813;SDS011;3952;48.364;16.022;2023-06-05T04:15:18;11.10;;;10.30;;
7813;SDS011;3952;48.364;16.022;2023-06-05T04:17:46;11.63;;;10.63;;
7813;SDS011;3952;48.364;16.022;2023-06-05T04:20:13;11.97;;;10.97;;
7813;SDS011;3952;48.364;16.022;2023-06-05T04:22:40;11.37;;;10.63;;
7813;SDS011;3952;48.364;16.022;2023-06-05T04:25:08;11.93;;;11.10;;
7813;SDS011;3952;48.364;16.022;2023-06-05T04:27:37;11.60;;;10.70;;
7813;SDS011;3952;48.364;16.022;2023-06-05T04:30:06;10.97;;;10.17;;
7813;SDS011;3952;48.364;16.022;2023-06-05T04:32:36;11.80;;;10.87;;
7813;SDS011;3952;48.364;16.022;2023-06-05T04:35:05;11.60;;;10.47;;
7813;SDS011;3952;48.364;16.022;2023-06-05T04:37:33;11.67;;;10.63;;
7813;SDS011;3952;48.364;16.022;2023-06-05T04:40:01;10.07;;;9.43;;
7813;SDS011;3952;48.364;16.022;2023-06-05T04:42:31;11.47;;;10.37;;
7813;SDS011;3952;48.364;16.022;2023-06-05T04:44:59;11.03;;;10.03;;
7813;SDS011;3952;48.364;16.022;2023-06-05T04:47:28;9.93;;;9.23;;
7813;SDS011;3952;48.364;16.022;2023-06-05T04:49:59;9.90;;;9.30;;
7813;SDS011;3952;48.364;16.022;2023-06-05T04:52:28;10.87;;;9.97;;
7813;SDS011;3952;48.364;16.022;2023-06-05T04:54:56;11.03;;;10.13;;
7813;SDS011;3952;48.364;16.022;2023-06-05T04:57:26;11.33;;;10.47;;
7813;SDS011;3952;48.364;16.022;2023-06-05T04:59:54;11.10;;;10.13;;
7813;SDS011;3952;48.364;16.022;2023-06-05T05:02:22;11.23;;;10.10;;
7813;SDS011;3952;48.364;16.022;2023-06-05T05:04:50;11.20;;;10.37;;
7813;SDS011;3952;48.364;16.022;2023-06-05T05:07:19;11.30;;;10.27;;
7813;SDS011;3952;48.364;16.022;2023-06-05T05:09:48;11.60;;;10.67;;
7813;SDS011;3952;48.364;16.022;2023-06-05T05:12:15;12.57;;;11.47;;
7813;SDS011;3952;48.364;16.022;2023-06-05T05:14:42;10.87;;;10.07;;
7813;SDS011;3952;48.364;16.022;2023-06-05T05:17:10;11.33;;;10.50;;
7813;SDS011;3952;48.364;16.022;2023-06-05T05:19:39;11.17;;;10.27;;
7813;SDS011;3952;48.364;16.022;2023-06-05T05:22:06;10.97;;;10.07;;
7813;SDS011;3952;48.364;16.022;2023-06-05T05:24:35;11.20;;;10.20;;
7813;SDS011;3952;48.364;16.022;2023-06-05T05:27:03;11.27;;;10.17;;
7813;SDS011;3952;48.364;16.022;2023-06-05T05:29:31;10.87;;;9.83;;
7813;SDS011;3952;48.364;16.022;2023-06-05T05:31:59;10.40;;;9.60;;
7813;SDS011;3952;48.364;16.022;2023-06-05T05:34:26;10.27;;;9.57;;
7813;SDS011;3952;48.364;16.022;2023-06-05T05:36:53;11.03;;;10.30;;
7813;SDS011;3952;48.364;16.022;2023-06-05T05:39:20;10.53;;;9.73;;
7813;SDS011;3952;48.364;16.022;2023-06-05T05:41:49;10.47;;;9.67;;
7813;SDS011;3952;48.364;16.022;2023-06-05T05:44:16;10.87;;;9.80;;
7813;SDS011;3952;48.364;16.022;2023-06-05T05:46:45;9.73;;;8.93;;
7813;SDS011;3952;48.364;16.022;2023-06-05T05:49:12;11.27;;;10.13;;
7813;SDS011;3952;48.364;16.022;2023-06-05T05:51:40;12.60;;;11.30;;
7813;SDS011;3952;48.364;16.022;2023-06-05T05:54:07;10.97;;;9.83;;
7813;SDS011;3952;48.364;16.022;2023-06-05T05:56:34;10.63;;;9.83;;
7813;SDS011;3952;48.364;16.022;2023-06-05T05:59:03;10.73;;;9.80;;
7813;SDS011;3952;48.364;16.022;2023-06-05T06:01:31;11.33;;;10.40;;
7813;SDS011;3952;48.364;16.022;2023-06-05T06:03:58;11.00;;;10.17;;
7813;SDS011;3952;48.364;16.022;2023-06-05T06:06:25;10.13;;;9.33;;
7813;SDS011;3952;48.364;16.022;2023-06-05T06:08:53;9.93;;;9.10;;
7813;SDS011;3952;48.364;16.022;2023-06-05T06:11:21;10.60;;;9.63;;
7813;SDS011;3952;48.364;16.022;2023-06-05T06:13:48;9.37;;;8.73;;
7813;SDS011;3952;48.364;16.022;2023-06-05T06:16:17;9.00;;;8.23;;
7813;SDS011;3952;48.364;16.022;2023-06-05T06:18:44;9.53;;;8.53;;
7813;SDS011;3952;48.364;16.022;2023-06-05T06:21:12;9.00;;;8.20;;
7813;SDS011;3952;48.364;16.022;2023-06-05T06:23:39;8.60;;;8.00;;
7813;SDS011;3952;48.364;16.022;2023-06-05T06:26:06;9.23;;;8.43;;
7813;SDS011;3952;48.364;16.022;2023-06-05T06:28:33;8.20;;;7.70;;
7813;SDS011;3952;48.364;16.022;2023-06-05T06:31:01;8.20;;;7.67;;
7813;SDS011;3952;48.364;16.022;2023-06-05T06:33:29;8.33;;;7.63;;
7813;SDS011;3952;48.364;16.022;2023-06-05T06:35:57;7.77;;;7.17;;
7813;SDS011;3952;48.364;16.022;2023-06-05T06:38:25;8.63;;;7.90;;
7813;SDS011;3952;48.364;16.022;2023-06-05T06:40:55;8.13;;;7.43;;
7813;SDS011;3952;48.364;16.022;2023-06-05T06:43:23;8.00;;;7.53;;
7813;SDS011;3952;48.364;16.022;2023-06-05T06:45:50;7.73;;;7.20;;
7813;SDS011;3952;48.364;16.022;2023-06-05T06:48:18;8.30;;;7.70;;
7813;SDS011;3952;48.364;16.022;2023-06-05T06:50:46;8.23;;;7.73;;
7813;SDS011;3952;48.364;16.022;2023-06-05T06:53:14;8.30;;;7.80;;
7813;SDS011;3952;48.364;16.022;2023-06-05T06:55:41;8.30;;;7.70;;
7813;SDS011;3952;48.364;16.022;2023-06-05T06:58:08;8.10;;;7.57;;
7813;SDS011;3952;48.364;16.022;2023-06-05T07:00:36;8.20;;;7.63;;
7813;SDS011;3952;48.364;16.022;2023-06-05T07:03:03;8.67;;;7.97;;
7813;SDS011;3952;48.364;16.022;2023-06-05T07:05:30;8.33;;;7.83;;
7813;SDS011;3952;48.364;16.022;2023-06-05T07:07:59;8.57;;;8.07;;
7813;SDS011;3952;48.364;16.022;2023-06-05T07:10:27;9.40;;;8.60;;
7813;SDS011;3952;48.364;16.022;2023-06-05T07:12:54;9.43;;;8.67;;
7813;SDS011;3952;48.364;16.022;2023-06-05T07:15:21;10.17;;;9.57;;
7813;SDS011;3952;48.364;16.022;2023-06-05T07:17:49;11.37;;;10.47;;
7813;SDS011;3952;48.364;16.022;2023-06-05T07:20:16;11.63;;;10.77;;
7813;SDS011;3952;48.364;16.022;2023-06-05T07:22:44;11.17;;;10.17;;
7813;SDS011;3952;48.364;16.022;2023-06-05T07:25:13;10.53;;;9.60;;
7813;SDS011;3952;48.364;16.022;2023-06-05T07:27:42;9.90;;;9.30;;
7813;SDS011;3952;48.364;16.022;2023-06-05T07:30:10;9.90;;;8.70;;
7813;SDS011;3952;48.364;16.022;2023-06-05T07:32:39;9.17;;;8.60;;
7813;SDS011;3952;48.364;16.022;2023-06-05T07:35:08;8.43;;;7.93;;
7813;SDS011;3952;48.364;16.022;2023-06-05T07:37:35;8.83;;;8.27;;
7813;SDS011;3952;48.364;16.022;2023-06-05T07:40:03;8.00;;;7.60;;
7813;SDS011;3952;48.364;16.022;2023-06-05T07:42:32;8.00;;;7.40;;
7813;SDS011;3952;48.364;16.022;2023-06-05T07:45:00;8.03;;;7.53;;
7813;SDS011;3952;48.364;16.022;2023-06-05T07:47:27;7.60;;;7.00;;
7813;SDS011;3952;48.364;16.022;2023-06-05T07:49:58;7.70;;;7.20;;
7813;SDS011;3952;48.364;16.022;2023-06-05T07:52:25;7.20;;;6.70;;
7813;SDS011;3952;48.364;16.022;2023-06-05T07:54:53;7.00;;;6.60;;
7813;SDS011;3952;48.364;16.022;2023-06-05T07:57:20;7.20;;;6.70;;
7813;SDS011;3952;48.364;16.022;2023-06-05T07:59:50;9.83;;;8.03;;
7813;SDS011;3952;48.364;16.022;2023-06-05T08:02:19;9.80;;;9.10;;
7813;SDS011;3952;48.364;16.022;2023-06-05T08:04:46;8.70;;;8.00;;
7813;SDS011;3952;48.364;16.022;2023-06-05T08:07:14;8.23;;;7.73;;
7813;SDS011;3952;48.364;16.022;2023-06-05T08:09:41;8.47;;;7.97;;
7813;SDS011;3952;48.364;16.022;2023-06-05T08:12:08;9.27;;;8.57;;
7813;SDS011;3952;48.364;16.022;2023-06-05T08:14:36;9.50;;;8.83;;
7813;SDS011;3952;48.364;16.022;2023-06-05T08:17:05;9.07;;;8.40;;
7813;SDS011;3952;48.364;16.022;2023-06-05T08:19:32;10.27;;;9.70;;
7813;SDS011;3952;48.364;16.022;2023-06-05T08:22:00;10.37;;;9.77;;
7813;SDS011;3952;48.364;16.022;2023-06-05T08:24:28;9.67;;;8.87;;
7813;SDS011;3952;48.364;16.022;2023-06-05T08:26:56;7.53;;;7.13;;
7813;SDS011;3952;48.364;16.022;2023-06-05T08:29:24;7.60;;;7.20;;
7813;SDS011;3952;48.364;16.022;2023-06-05T08:31:52;7.17;;;6.77;;
7813;SDS011;3952;48.364;16.022;2023-06-05T08:34:21;7.40;;;6.90;;
7813;SDS011;3952;48.364;16.022;2023-06-05T08:36:51;7.77;;;7.17;;
7813;SDS011;3952;48.364;16.022;2023-06-05T08:39:18;8.50;;;8.00;;
7813;SDS011;3952;48.364;16.022;2023-06-05T08:41:45;8.30;;;7.50;;
7813;SDS011;3952;48.364;16.022;2023-06-05T08:44:17;7.80;;;7.30;;
7813;SDS011;3952;48.364;16.022;2023-06-05T08:46:45;7.73;;;7.23;;
7813;SDS011;3952;48.364;16.022;2023-06-05T08:49:13;8.03;;;7.53;;
7813;SDS011;3952;48.364;16.022;2023-06-05T08:51:50;8.20;;;7.60;;
7813;SDS011;3952;48.364;16.022;2023-06-05T08:54:20;8.03;;;7.53;;
7813;SDS011;3952;48.364;16.022;2023-06-05T08:56:47;8.07;;;7.47;;
7813;SDS011;3952;48.364;16.022;2023-06-05T08:59:16;7.73;;;7.23;;
7813;SDS011;3952;48.364;16.022;2023-06-05T09:01:46;7.53;;;7.13;;
7813;SDS011;3952;48.364;16.022;2023-06-05T09:04:13;8.00;;;7.50;;
7813;SDS011;3952;48.364;16.022;2023-06-05T09:06:44;8.10;;;7.50;;
7813;SDS011;3952;48.364;16.022;2023-06-05T09:09:15;7.93;;;7.53;;
7813;SDS011;3952;48.364;16.022;2023-06-05T09:11:42;7.97;;;7.27;;
7813;SDS011;3952;48.364;16.022;2023-06-05T09:14:09;8.93;;;8.13;;
7813;SDS011;3952;48.364;16.022;2023-06-05T09:16:38;7.77;;;7.27;;
7813;SDS011;3952;48.364;16.022;2023-06-05T09:19:07;7.67;;;6.93;;
7813;SDS011;3952;48.364;16.022;2023-06-05T09:21:36;8.20;;;7.63;;
7813;SDS011;3952;48.364;16.022;2023-06-05T09:26:51;7.57;;;7.13;;
7813;SDS011;3952;48.364;16.022;2023-06-05T09:29:21;8.43;;;7.73;;
7813;SDS011;3952;48.364;16.022;2023-06-05T09:31:49;7.30;;;6.60;;
7813;SDS011;3952;48.364;16.022;2023-06-05T09:34:24;8.03;;;7.50;;
7813;SDS011;3952;48.364;16.022;2023-06-05T09:36:52;7.50;;;7.00;;
7813;SDS011;3952;48.364;16.022;2023-06-05T09:39:24;9.60;;;6.57;;
7813;SDS011;3952;48.364;16.022;2023-06-05T09:41:52;6.60;;;6.20;;
7813;SDS011;3952;48.364;16.022;2023-06-05T09:44:19;6.87;;;6.37;;
7813;SDS011;3952;48.364;16.022;2023-06-05T09:46:51;7.00;;;6.30;;
7813;SDS011;3952;48.364;16.022;2023-06-05T09:49:19;6.37;;;5.90;;
7813;SDS011;3952;48.364;16.022;2023-06-05T09:51:47;6.40;;;6.00;;
7813;SDS011;3952;48.364;16.022;2023-06-05T09:54:15;6.60;;;6.20;;
7813;SDS011;3952;48.364;16.022;2023-06-05T09:56:47;6.70;;;6.30;;
7813;SDS011;3952;48.364;16.022;2023-06-05T09:59:17;6.83;;;6.33;;
7813;SDS011;3952;48.364;16.022;2023-06-05T10:01:49;7.20;;;6.60;;
7813;SDS011;3952;48.364;16.022;2023-06-05T10:04:20;8.03;;;7.20;;
7813;SDS011;3952;48.364;16.022;2023-06-05T10:06:49;7.40;;;6.80;;
7813;SDS011;3952;48.364;16.022;2023-06-05T10:09:18;8.50;;;6.37;;
7813;SDS011;3952;48.364;16.022;2023-06-05T10:11:49;8.20;;;7.50;;
7813;SDS011;3952;48.364;16.022;2023-06-05T10:14:17;7.13;;;6.57;;
7813;SDS011;3952;48.364;16.022;2023-06-05T10:16:48;6.70;;;6.20;;
7813;SDS011;3952;48.364;16.022;2023-06-05T10:19:17;6.90;;;6.30;;
7813;SDS011;3952;48.364;16.022;2023-06-05T10:21:46;7.03;;;6.67;;
7813;SDS011;3952;48.364;16.022;2023-06-05T10:24:15;7.07;;;6.43;;
7813;SDS011;3952;48.364;16.022;2023-06-05T10:27:11;6.60;;;6.20;;
7813;SDS011;3952;48.364;16.022;2023-06-05T10:30:03;6.83;;;6.23;;
7813;SDS011;3952;48.364;16.022;2023-06-05T10:35:30;6.30;;;6.00;;
7813;SDS011;3952;48.364;16.022;2023-06-05T10:38:07;6.43;;;6.13;;
7813;SDS011;3952;48.364;16.022;2023-06-05T10:40:44;6.13;;;5.83;;
7813;SDS011;3952;48.364;16.022;2023-06-05T10:43:30;6.33;;;5.83;;
7813;SDS011;3952;48.364;16.022;2023-06-05T10:45:59;6.50;;;6.10;;
7813;SDS011;3952;48.364;16.022;2023-06-05T10:51:33;7.07;;;6.47;;
7813;SDS011;3952;48.364;16.022;2023-06-05T10:54:03;6.70;;;6.17;;
7813;SDS011;3952;48.364;16.022;2023-06-05T10:59:23;5.80;;;5.40;;
7813;SDS011;3952;48.364;16.022;2023-06-05T11:05:03;7.53;;;6.17;;
7813;SDS011;3952;48.364;16.022;2023-06-05T11:07:37;6.47;;;5.90;;
7813;SDS011;3952;48.364;16.022;2023-06-05T11:10:09;6.30;;;5.83;;
7813;SDS011;3952;48.364;16.022;2023-06-05T11:12:57;7.77;;;7.17;;
7813;SDS011;3952;48.364;16.022;2023-06-05T11:20:54;8.57;;;7.87;;
7813;SDS011;3952;48.364;16.022;2023-06-05T11:23:22;7.73;;;7.23;;
7813;SDS011;3952;48.364;16.022;2023-06-05T11:25:53;8.23;;;7.47;;
7813;SDS011;3952;48.364;16.022;2023-06-05T11:28:36;8.77;;;7.83;;
7813;SDS011;3952;48.364;16.022;2023-06-05T11:31:08;7.73;;;7.23;;
7813;SDS011;3952;48.364;16.022;2023-06-05T11:33:36;6.87;;;6.57;;
7813;SDS011;3952;48.364;16.022;2023-06-05T11:36:04;8.33;;;7.70;;
7813;SDS011;3952;48.364;16.022;2023-06-05T11:38:34;7.77;;;7.10;;
7813;SDS011;3952;48.364;16.022;2023-06-05T11:41:05;6.83;;;6.43;;
7813;SDS011;3952;48.364;16.022;2023-06-05T11:43:41;6.63;;;6.27;;
7813;SDS011;3952;48.364;16.022;2023-06-05T11:46:10;7.13;;;6.53;;
7813;SDS011;3952;48.364;16.022;2023-06-05T11:48:44;6.33;;;5.93;;
7813;SDS011;3952;48.364;16.022;2023-06-05T11:51:11;6.30;;;5.90;;
7813;SDS011;3952;48.364;16.022;2023-06-05T11:53:44;6.77;;;6.27;;
7813;SDS011;3952;48.364;16.022;2023-06-05T11:56:14;6.33;;;5.80;;
7813;SDS011;3952;48.364;16.022;2023-06-05T11:58:43;6.33;;;5.93;;
7813;SDS011;3952;48.364;16.022;2023-06-05T12:01:13;6.70;;;6.10;;
7813;SDS011;3952;48.364;16.022;2023-06-05T12:03:47;8.03;;;7.17;;
7813;SDS011;3952;48.364;16.022;2023-06-05T12:06:16;7.33;;;6.37;;
7813;SDS011;3952;48.364;16.022;2023-06-05T12:08:44;6.73;;;6.40;;
7813;SDS011;3952;48.364;16.022;2023-06-05T12:11:21;7.37;;;6.77;;
7813;SDS011;3952;48.364;16.022;2023-06-05T12:13:51;7.20;;;6.60;;
7813;SDS011;3952;48.364;16.022;2023-06-05T12:16:21;6.53;;;6.13;;
7813;SDS011;3952;48.364;16.022;2023-06-05T12:18:57;6.73;;;6.33;;
7813;SDS011;3952;48.364;16.022;2023-06-05T12:21:25;6.10;;;5.63;;
7813;SDS011;3952;48.364;16.022;2023-06-05T12:24:00;6.50;;;6.00;;
7813;SDS011;3952;48.364;16.022;2023-06-05T12:26:28;5.97;;;5.57;;
7813;SDS011;3952;48.364;16.022;2023-06-05T12:29:02;5.37;;;5.03;;
7813;SDS011;3952;48.364;16.022;2023-06-05T12:31:35;5.87;;;5.20;;
7813;SDS011;3952;48.364;16.022;2023-06-05T12:34:05;5.20;;;4.73;;
7813;SDS011;3952;48.364;16.022;2023-06-05T12:36:37;5.20;;;4.83;;
7813;SDS011;3952;48.364;16.022;2023-06-05T12:39:06;5.10;;;4.70;;
7813;SDS011;3952;48.364;16.022;2023-06-05T12:41:34;4.77;;;4.40;;
7813;SDS011;3952;48.364;16.022;2023-06-05T12:44:01;5.60;;;5.10;;
7813;SDS011;3952;48.364;16.022;2023-06-05T12:46:30;6.03;;;5.53;;
7813;SDS011;3952;48.364;16.022;2023-06-05T12:48:59;5.30;;;4.90;;
7813;SDS011;3952;48.364;16.022;2023-06-05T12:51:27;7.13;;;5.27;;
7813;SDS011;3952;48.364;16.022;2023-06-05T12:53:55;5.03;;;4.77;;
7813;SDS011;3952;48.364;16.022;2023-06-05T12:56:22;5.43;;;5.00;;
7813;SDS011;3952;48.364;16.022;2023-06-05T12:58:53;6.10;;;5.60;;
7813;SDS011;3952;48.364;16.022;2023-06-05T13:01:21;5.67;;;5.17;;
7813;SDS011;3952;48.364;16.022;2023-06-05T13:03:48;7.20;;;5.20;;
7813;SDS011;3952;48.364;16.022;2023-06-05T13:06:17;5.63;;;5.10;;
7813;SDS011;3952;48.364;16.022;2023-06-05T13:08:45;5.53;;;5.07;;
7813;SDS011;3952;48.364;16.022;2023-06-05T13:11:13;5.03;;;4.73;;
7813;SDS011;3952;48.364;16.022;2023-06-05T13:13:41;5.47;;;5.07;;
7813;SDS011;3952;48.364;16.022;2023-06-05T13:16:09;5.67;;;4.63;;
7813;SDS011;3952;48.364;16.022;2023-06-05T13:18:36;5.50;;;5.20;;
7813;SDS011;3952;48.364;16.022;2023-06-05T13:21:04;5.63;;;5.20;;
7813;SDS011;3952;48.364;16.022;2023-06-05T13:23:33;5.33;;;4.93;;
7813;SDS011;3952;48.364;16.022;2023-06-05T13:26:00;5.17;;;4.83;;
7813;SDS011;3952;48.364;16.022;2023-06-05T13:28:29;6.00;;;5.37;;
7813;SDS011;3952;48.364;16.022;2023-06-05T13:30:56;6.43;;;5.80;;
7813;SDS011;3952;48.364;16.022;2023-06-05T13:33:23;5.83;;;4.53;;
7813;SDS011;3952;48.364;16.022;2023-06-05T13:35:51;5.60;;;4.77;;
7813;SDS011;3952;48.364;16.022;2023-06-05T13:38:19;4.73;;;4.40;;
7813;SDS011;3952;48.364;16.022;2023-06-05T13:40:48;5.47;;;4.00;;
7813;SDS011;3952;48.364;16.022;2023-06-05T13:43:17;4.90;;;4.37;;
7813;SDS011;3952;48.364;16.022;2023-06-05T13:45:44;3.63;;;3.33;;
7813;SDS011;3952;48.364;16.022;2023-06-05T13:48:12;7.07;;;3.83;;
7813;SDS011;3952;48.364;16.022;2023-06-05T13:50:39;3.80;;;3.60;;
7813;SDS011;3952;48.364;16.022;2023-06-05T13:53:07;3.70;;;3.40;;
7813;SDS011;3952;48.364;16.022;2023-06-05T13:55:34;4.37;;;3.80;;
7813;SDS011;3952;48.364;16.022;2023-06-05T13:58:03;5.40;;;3.83;;
7813;SDS011;3952;48.364;16.022;2023-06-05T14:00:30;4.00;;;3.70;;
7813;SDS011;3952;48.364;16.022;2023-06-05T14:02:58;5.77;;;3.73;;
7813;SDS011;3952;48.364;16.022;2023-06-05T14:05:25;6.97;;;3.60;;
7813;SDS011;3952;48.364;16.022;2023-06-05T14:07:54;4.10;;;3.80;;
7813;SDS011;3952;48.364;16.022;2023-06-05T14:10:22;3.90;;;3.60;;
7813;SDS011;3952;48.364;16.022;2023-06-05T14:12:51;4.30;;;4.10;;
7813;SDS011;3952;48.364;16.022;2023-06-05T14:15:20;4.00;;;3.70;;
7813;SDS011;3952;48.364;16.022;2023-06-05T14:17:49;6.03;;;4.60;;
7813;SDS011;3952;48.364;16.022;2023-06-05T14:20:17;5.47;;;4.23;;
7813;SDS011;3952;48.364;16.022;2023-06-05T14:22:46;4.27;;;3.97;;
7813;SDS011;3952;48.364;16.022;2023-06-05T14:25:13;4.30;;;3.77;;
7813;SDS011;3952;48.364;16.022;2023-06-05T14:27:40;4.20;;;3.90;;
7813;SDS011;3952;48.364;16.022;2023-06-05T14:30:08;4.97;;;4.03;;
7813;SDS011;3952;48.364;16.022;2023-06-05T14:32:37;5.13;;;4.63;;
7813;SDS011;3952;48.364;16.022;2023-06-05T14:35:05;6.03;;;4.10;;
7813;SDS011;3952;48.364;16.022;2023-06-05T14:37:32;4.60;;;4.30;;
7813;SDS011;3952;48.364;16.022;2023-06-05T14:39:59;4.77;;;4.37;;
7813;SDS011;3952;48.364;16.022;2023-06-05T14:42:27;4.83;;;4.60;;
7813;SDS011;3952;48.364;16.022;2023-06-05T14:44:54;4.60;;;4.30;;
7813;SDS011;3952;48.364;16.022;2023-06-05T14:47:22;4.30;;;4.10;;
7813;SDS011;3952;48.364;16.022;2023-06-05T14:49:50;4.63;;;4.07;;
7813;SDS011;3952;48.364;16.022;2023-06-05T14:52:18;10.07;;;4.40;;
7813;SDS011;3952;48.364;16.022;2023-06-05T14:54:45;4.63;;;4.23;;
7813;SDS011;3952;48.364;16.022;2023-06-05T14:57:12;5.23;;;4.83;;
7813;SDS011;3952;48.364;16.022;2023-06-05T14:59:39;5.33;;;4.83;;
7813;SDS011;3952;48.364;16.022;2023-06-05T15:02:07;4.97;;;4.67;;
7813;SDS011;3952;48.364;16.022;2023-06-05T15:04:34;4.50;;;4.30;;
7813;SDS011;3952;48.364;16.022;2023-06-05T15:07:03;5.63;;;5.13;;
7813;SDS011;3952;48.364;16.022;2023-06-05T15:09:31;5.80;;;5.30;;
7813;SDS011;3952;48.364;16.022;2023-06-05T15:11:58;6.70;;;5.27;;
7813;SDS011;3952;48.364;16.022;2023-06-05T15:14:25;7.07;;;6.43;;
7813;SDS011;3952;48.364;16.022;2023-06-05T15:16:52;6.80;;;6.20;;
7813;SDS011;3952;48.364;16.022;2023-06-05T15:19:20;6.80;;;6.30;;
7813;SDS011;3952;48.364;16.022;2023-06-05T15:21:47;6.87;;;6.37;;
7813;SDS011;3952;48.364;16.022;2023-06-05T15:24:16;6.50;;;6.03;;